createdAt,value
2023-04-20T00:00:11.292Z,78.70
2023-04-20T00:00:45.983Z,78.70
2023-04-20T00:01:17.756Z,78.80
2023-04-20T00:01:50.347Z,80.10
2023-04-20T00:02:22.866Z,80.50
2023-04-20T00:02:54.802Z,79.00
2023-04-20T00:03:27.350Z,78.80
2023-04-20T00:03:59.589Z,80.00
2023-04-20T00:04:31.488Z,78.60
2023-04-20T00:05:03.390Z,78.60
2023-04-20T00:05:35.538Z,78.90
2023-04-20T00:06:07.852Z,77.80
2023-04-20T00:06:39.616Z,78.30
2023-04-20T00:07:11.802Z,78.80
2023-04-20T00:07:43.536Z,78.90
2023-04-20T00:08:18.034Z,78.90
2023-04-20T00:08:49.823Z,79.10
2023-04-20T00:09:21.634Z,80.00
2023-04-20T00:09:53.381Z,80.60
2023-04-20T00:10:25.302Z,79.20
2023-04-20T00:10:57.061Z,78.80
2023-04-20T00:11:28.814Z,79.60
2023-04-20T00:12:01.703Z,79.20
2023-04-20T00:12:33.546Z,79.60
2023-04-20T00:13:05.310Z,78.80
2023-04-20T00:13:37.043Z,79.70
2023-04-20T00:14:08.799Z,80.00
2023-04-20T00:14:40.671Z,80.70
2023-04-20T00:15:12.472Z,79.20
2023-04-20T00:15:44.273Z,79.80
2023-04-20T00:16:16.418Z,78.90
2023-04-20T00:16:49.056Z,79.60
2023-04-20T00:17:21.282Z,79.20
2023-04-20T00:17:53.657Z,80.30
2023-04-20T00:18:25.574Z,79.10
2023-04-20T00:18:59.052Z,79.00
2023-04-20T00:19:33.211Z,78.90
2023-04-20T00:20:06.092Z,79.50
2023-04-20T00:20:38.540Z,78.90
2023-04-20T00:21:10.318Z,80.10
2023-04-20T00:21:42.068Z,79.30
2023-04-20T00:22:14.069Z,78.70
2023-04-20T00:22:45.891Z,79.40
2023-04-20T00:23:17.730Z,79.80
2023-04-20T00:23:50.204Z,79.30
2023-04-20T00:24:22.103Z,79.70
2023-04-20T00:24:54.056Z,79.40
2023-04-20T00:25:25.864Z,80.00
2023-04-20T00:25:57.765Z,79.30
2023-04-20T00:26:30.786Z,80.30
2023-04-20T00:27:03.272Z,80.10
2023-04-20T00:27:35.030Z,78.70
2023-04-20T00:28:06.793Z,79.30
2023-04-20T00:28:38.667Z,79.30
2023-04-20T00:29:12.544Z,79.60
2023-04-20T00:29:44.302Z,79.10
2023-04-20T00:30:16.293Z,79.40
2023-04-20T00:30:48.183Z,79.40
2023-04-20T00:31:21.031Z,79.90
2023-04-20T00:31:52.869Z,79.50
2023-04-20T00:32:24.669Z,81.40
2023-04-20T00:32:56.745Z,79.80
2023-04-20T00:33:28.519Z,79.30
2023-04-20T00:34:00.428Z,78.70
2023-04-20T00:34:32.452Z,79.30
2023-04-20T00:35:06.469Z,80.50
2023-04-20T00:35:38.288Z,79.30
2023-04-20T00:36:10.243Z,78.70
2023-04-20T00:36:42.134Z,79.60
2023-04-20T00:37:13.906Z,79.20
2023-04-20T00:37:45.636Z,79.50
2023-04-20T00:38:17.462Z,79.40
2023-04-20T00:38:49.220Z,79.60
2023-04-20T00:39:21.257Z,79.10
2023-04-20T00:39:53.042Z,79.00
2023-04-20T00:40:24.887Z,80.20
2023-04-20T00:40:56.633Z,79.20
2023-04-20T00:41:28.410Z,79.00
2023-04-20T00:42:07.758Z,79.50
2023-04-20T00:42:41.440Z,79.10
2023-04-20T00:43:14.717Z,78.60
2023-04-20T00:43:53.784Z,79.00
2023-04-20T00:44:25.841Z,79.00
2023-04-20T00:44:59.074Z,79.50
2023-04-20T00:45:30.830Z,79.90
2023-04-20T00:46:03.858Z,79.10
2023-04-20T00:46:35.972Z,79.90
2023-04-20T00:47:09.517Z,78.50
2023-04-20T00:47:41.361Z,78.90
2023-04-20T00:48:13.622Z,79.20
2023-04-20T00:48:45.758Z,79.10
2023-04-20T00:49:18.767Z,79.00
2023-04-20T00:49:52.959Z,79.50
2023-04-20T00:50:24.733Z,79.70
2023-04-20T00:50:56.884Z,78.90
2023-04-20T00:51:30.215Z,79.50
2023-04-20T00:52:03.008Z,79.10
2023-04-20T00:52:36.131Z,79.20
2023-04-20T00:53:08.755Z,78.40
2023-04-20T00:53:41.127Z,78.90
2023-04-20T00:54:12.939Z,79.20
2023-04-20T00:54:45.047Z,79.00
2023-04-20T00:55:17.084Z,78.90
2023-04-20T00:55:50.939Z,79.30
2023-04-20T00:56:23.133Z,78.40
2023-04-20T00:56:57.855Z,79.10
2023-04-20T00:57:31.035Z,79.80
2023-04-20T00:58:06.513Z,80.40
2023-04-20T00:58:38.667Z,79.80
2023-04-20T00:59:10.654Z,79.20
2023-04-20T00:59:42.580Z,80.30
2023-04-20T01:00:15.024Z,79.20
2023-04-20T01:00:47.316Z,78.40
2023-04-20T01:01:19.681Z,78.70
2023-04-20T01:01:51.790Z,78.80
2023-04-20T01:02:23.764Z,79.00
2023-04-20T01:02:56.379Z,79.70
2023-04-20T01:03:28.362Z,78.50
2023-04-20T01:04:00.639Z,79.20
2023-04-20T01:04:36.366Z,79.10
2023-04-20T01:05:09.266Z,80.60
2023-04-20T01:05:41.465Z,78.50
2023-04-20T01:06:14.205Z,79.40
2023-04-20T01:06:46.299Z,80.80
2023-04-20T01:07:19.175Z,79.60
2023-04-20T01:07:51.494Z,78.90
2023-04-20T01:08:27.509Z,79.30
2023-04-20T01:09:00.383Z,78.90
2023-04-20T01:09:32.268Z,78.90
2023-04-20T01:10:07.144Z,80.00
2023-04-20T01:10:38.930Z,78.90
2023-04-20T01:11:11.970Z,79.30
2023-04-20T01:11:43.740Z,80.00
2023-04-20T01:12:15.525Z,79.00
2023-04-20T01:12:48.960Z,79.20
2023-04-20T01:13:20.917Z,80.70
2023-04-20T01:13:52.726Z,79.30
2023-04-20T01:14:24.533Z,79.10
2023-04-20T01:14:56.395Z,79.10
2023-04-20T01:15:28.210Z,78.90
2023-04-20T01:16:00.568Z,79.10
2023-04-20T01:16:34.798Z,79.50
2023-04-20T01:17:06.747Z,79.00
2023-04-20T01:17:39.738Z,78.90
2023-04-20T01:18:11.875Z,78.90
2023-04-20T01:18:48.675Z,78.40
2023-04-20T01:19:21.561Z,78.30
2023-04-20T01:19:53.352Z,78.10
2023-04-20T01:20:26.075Z,78.00
2023-04-20T01:20:58.636Z,78.00
2023-04-20T01:22:05.998Z,78.10
2023-04-20T01:22:50.172Z,77.70
2023-04-20T01:23:22.097Z,77.70
2023-04-20T01:23:53.897Z,78.20
2023-04-20T01:24:25.704Z,78.10
2023-04-20T01:25:31.749Z,78.10
2023-04-20T01:26:11.456Z,77.80
2023-04-20T01:26:43.280Z,77.80
2023-04-20T01:27:17.053Z,78.10
2023-04-20T01:27:48.932Z,78.10
2023-04-20T01:29:25.448Z,77.80
2023-04-20T01:30:29.820Z,77.70
2023-04-20T01:31:03.980Z,77.60
2023-04-20T01:31:37.467Z,77.60
2023-04-20T01:32:41.993Z,77.90
2023-04-20T01:34:18.280Z,77.50
2023-04-20T01:45:22.356Z,77.40
2023-04-20T02:02:09.730Z,77.50
2023-04-20T02:02:41.959Z,77.70
2023-04-20T02:03:14.041Z,77.70
2023-04-20T02:03:46.438Z,78.60
2023-04-20T02:04:18.389Z,78.40
2023-04-20T02:04:50.368Z,77.80
2023-04-20T02:05:22.185Z,77.70
2023-04-20T02:05:54.258Z,78.20
2023-04-20T02:06:25.997Z,78.90
2023-04-20T02:06:57.789Z,78.90
2023-04-20T02:07:29.495Z,78.90
2023-04-20T02:08:01.263Z,80.00
2023-04-20T02:08:33.635Z,78.70
2023-04-20T02:09:05.778Z,78.80
2023-04-20T02:09:39.949Z,81.90
2023-04-20T02:10:11.754Z,79.00
2023-04-20T02:10:43.549Z,78.90
2023-04-20T02:11:15.369Z,78.90
2023-04-20T02:11:47.154Z,78.70
2023-04-20T02:12:19.022Z,80.40
2023-04-20T02:12:50.927Z,79.80
2023-04-20T02:13:22.701Z,79.50
2023-04-20T02:13:54.467Z,78.20
2023-04-20T02:14:26.770Z,79.10
2023-04-20T02:14:58.553Z,80.40
2023-04-20T02:15:30.796Z,79.40
2023-04-20T02:16:02.562Z,79.30
2023-04-20T02:16:35.548Z,79.70
2023-04-20T02:17:07.571Z,80.60
2023-04-20T02:17:41.030Z,80.80
2023-04-20T02:18:12.833Z,80.30
2023-04-20T02:18:45.896Z,80.10
2023-04-20T02:19:17.885Z,80.00
2023-04-20T02:19:50.092Z,82.00
2023-04-20T02:20:21.933Z,80.60
2023-04-20T02:20:54.119Z,80.00
2023-04-20T02:21:25.860Z,79.30
2023-04-20T02:21:57.632Z,79.30
2023-04-20T02:22:29.420Z,79.50
2023-04-20T02:23:01.221Z,80.40
2023-04-20T02:23:33.003Z,80.70
2023-04-20T02:24:06.248Z,81.30
2023-04-20T02:24:42.364Z,79.90
2023-04-20T02:25:46.800Z,79.40
2023-04-20T02:26:18.563Z,79.40
2023-04-20T02:26:50.346Z,81.10
2023-04-20T02:27:22.097Z,80.60
2023-04-20T02:27:54.170Z,81.20
2023-04-20T02:28:26.347Z,79.70
2023-04-20T02:28:58.166Z,80.20
2023-04-20T02:29:31.801Z,82.40
2023-04-20T02:30:04.160Z,80.50
2023-04-20T02:30:36.034Z,79.90
2023-04-20T02:31:08.487Z,79.70
2023-04-20T02:31:40.450Z,79.60
2023-04-20T02:32:12.255Z,79.70
2023-04-20T02:32:44.466Z,80.50
2023-04-20T02:33:16.569Z,79.60
2023-04-20T02:33:49.889Z,79.60
2023-04-20T02:34:22.029Z,79.50
2023-04-20T02:34:53.844Z,79.60
2023-04-20T02:35:26.184Z,80.80
2023-04-20T02:35:57.956Z,79.90
2023-04-20T02:36:29.721Z,79.60
2023-04-20T02:37:01.553Z,79.40
2023-04-20T02:37:33.330Z,79.60
2023-04-20T02:38:05.441Z,79.50
2023-04-20T02:38:38.088Z,80.30
2023-04-20T02:39:12.784Z,79.50
2023-04-20T02:40:17.080Z,78.80
2023-04-20T02:40:48.902Z,78.90
2023-04-20T02:41:21.833Z,79.30
2023-04-20T02:41:53.639Z,79.10
2023-04-20T02:42:25.941Z,79.10
2023-04-20T02:42:58.658Z,79.20
2023-04-20T02:43:31.511Z,79.50
2023-04-20T02:44:03.839Z,80.30
2023-04-20T02:44:38.616Z,81.40
2023-04-20T02:45:11.371Z,80.00
2023-04-20T02:45:44.501Z,80.10
2023-04-20T02:46:17.840Z,80.60
2023-04-20T02:46:49.783Z,80.40
2023-04-20T02:47:22.837Z,80.60
2023-04-20T02:47:57.299Z,81.90
2023-04-20T02:48:30.371Z,81.90
2023-04-20T02:49:03.683Z,80.40
2023-04-20T02:49:38.983Z,79.70
2023-04-20T02:50:11.329Z,82.30
2023-04-20T02:51:00.186Z,80.60
2023-04-20T02:51:37.354Z,79.80
2023-04-20T02:52:09.193Z,81.30
2023-04-20T02:52:41.332Z,80.10
2023-04-20T02:53:13.131Z,80.70
2023-04-20T02:53:45.053Z,80.00
2023-04-20T02:54:33.541Z,82.50
2023-04-20T02:55:06.798Z,82.40
2023-04-20T02:55:38.656Z,80.00
2023-04-20T02:56:21.791Z,80.40
2023-04-20T02:56:59.616Z,79.70
2023-04-20T02:57:32.210Z,79.70
2023-04-20T02:58:04.929Z,80.50
2023-04-20T02:58:56.961Z,79.80
2023-04-20T02:59:46.126Z,79.60
2023-04-20T03:00:25.213Z,81.30
2023-04-20T03:01:07.369Z,81.90
2023-04-20T03:01:40.753Z,80.50
2023-04-20T03:02:25.344Z,81.40
2023-04-20T03:02:59.535Z,81.90
2023-04-20T03:03:32.114Z,80.30
2023-04-20T03:04:04.815Z,79.80
2023-04-20T03:04:39.639Z,80.30
2023-04-20T03:05:22.391Z,80.50
2023-04-20T03:05:56.793Z,80.50
2023-04-20T03:06:28.954Z,80.40
2023-04-20T03:07:02.155Z,82.10
2023-04-20T03:07:37.420Z,82.60
2023-04-20T03:08:10.576Z,80.40
2023-04-20T03:08:42.401Z,81.60
2023-04-20T03:09:32.684Z,80.60
2023-04-20T03:10:17.539Z,80.90
2023-04-20T03:10:58.711Z,80.50
2023-04-20T03:11:31.004Z,82.90
2023-04-20T03:12:04.281Z,81.90
2023-04-20T03:12:59.131Z,78.20
2023-04-20T03:13:51.174Z,82.00
2023-04-20T03:14:22.965Z,80.30
2023-04-20T03:14:54.802Z,80.40
2023-04-20T03:15:32.978Z,80.50
2023-04-20T03:16:12.780Z,81.10
2023-04-20T03:16:49.134Z,80.50
2023-04-20T03:17:20.958Z,81.30
2023-04-20T03:17:52.795Z,80.20
2023-04-20T03:18:24.724Z,81.60
2023-04-20T03:18:57.478Z,80.40
2023-04-20T03:19:29.592Z,82.30
2023-04-20T03:20:01.479Z,80.50
2023-04-20T03:20:33.690Z,81.10
2023-04-20T03:21:05.629Z,80.30
2023-04-20T03:21:37.459Z,80.30
2023-04-20T03:22:09.268Z,80.20
2023-04-20T03:22:42.058Z,80.80
2023-04-20T03:23:14.285Z,82.10
2023-04-20T03:23:46.397Z,82.80
2023-04-20T03:24:19.101Z,80.60
2023-04-20T03:24:53.498Z,80.20
2023-04-20T03:25:51.667Z,82.30
2023-04-20T03:26:42.855Z,82.20
2023-04-20T03:27:23.072Z,80.50
2023-04-20T03:28:10.999Z,81.10
2023-04-20T03:28:44.736Z,82.10
2023-04-20T03:29:20.166Z,81.20
2023-04-20T03:29:52.618Z,80.70
2023-04-20T03:30:24.512Z,80.90
2023-04-20T03:31:06.630Z,80.90
2023-04-20T03:31:38.679Z,80.40
2023-04-20T03:32:11.253Z,82.50
2023-04-20T03:32:43.096Z,82.60
2023-04-20T03:33:15.046Z,80.80
2023-04-20T03:33:46.920Z,82.30
2023-04-20T03:34:18.688Z,83.20
2023-04-20T03:34:50.978Z,81.00
2023-04-20T03:35:22.765Z,81.90
2023-04-20T03:35:55.090Z,82.20
2023-04-20T03:36:28.370Z,81.40
2023-04-20T03:37:01.853Z,81.20
2023-04-20T03:37:33.569Z,81.20
2023-04-20T03:38:06.335Z,81.20
2023-04-20T03:38:38.069Z,82.10
2023-04-20T03:39:09.994Z,82.10
2023-04-20T03:39:41.721Z,80.70
2023-04-20T03:40:14.199Z,83.50
2023-04-20T03:40:46.010Z,80.40
2023-04-20T03:41:17.967Z,81.60
2023-04-20T03:41:49.710Z,82.60
2023-04-20T03:42:21.490Z,81.70
2023-04-20T03:42:53.724Z,80.70
2023-04-20T03:43:26.017Z,81.20
2023-04-20T03:43:59.204Z,80.30
2023-04-20T03:44:30.931Z,81.10
2023-04-20T03:45:05.102Z,80.30
2023-04-20T03:45:37.587Z,81.00
2023-04-20T03:46:09.471Z,82.80
2023-04-20T03:46:41.265Z,80.60
2023-04-20T03:47:13.062Z,81.80
2023-04-20T03:47:44.924Z,81.10
2023-04-20T03:48:16.688Z,81.20
2023-04-20T03:48:48.440Z,83.20
2023-04-20T03:49:25.053Z,82.70
2023-04-20T03:49:56.842Z,82.70
2023-04-20T03:50:28.690Z,83.40
2023-04-20T03:51:00.414Z,78.60
2023-04-20T03:51:32.373Z,83.30
2023-04-20T03:52:04.826Z,81.50
2023-04-20T03:52:37.183Z,80.70
2023-04-20T03:53:10.562Z,82.60
2023-04-20T03:53:42.543Z,82.90
2023-04-20T03:54:16.853Z,80.30
2023-04-20T03:54:48.593Z,80.40
2023-04-20T03:55:22.259Z,81.90
2023-04-20T03:56:01.544Z,80.80
2023-04-20T03:56:33.419Z,82.60
2023-04-20T03:57:06.247Z,83.40
2023-04-20T03:57:38.885Z,80.80
2023-04-20T03:58:11.866Z,82.10
2023-04-20T03:58:55.898Z,82.60
2023-04-20T03:59:30.725Z,82.10
2023-04-20T04:00:04.582Z,81.70
2023-04-20T04:00:50.979Z,80.40
2023-04-20T04:01:22.959Z,81.60
2023-04-20T04:01:54.844Z,81.20
2023-04-20T04:02:26.877Z,81.40
2023-04-20T04:03:01.701Z,80.80
2023-04-20T04:03:34.552Z,80.80
2023-04-20T04:04:07.733Z,81.60
2023-04-20T04:04:43.732Z,81.00
2023-04-20T04:05:15.878Z,80.80
2023-04-20T04:05:48.685Z,81.70
2023-04-20T04:06:22.398Z,80.90
2023-04-20T04:06:54.175Z,80.70
2023-04-20T04:07:26.026Z,80.70
2023-04-20T04:07:58.993Z,80.90
2023-04-20T04:08:32.152Z,80.60
2023-04-20T04:09:05.445Z,80.50
2023-04-20T04:09:37.233Z,80.70
2023-04-20T04:10:09.868Z,81.10
2023-04-20T04:10:41.792Z,80.60
2023-04-20T04:11:14.181Z,80.70
2023-04-20T04:11:46.010Z,80.80
2023-04-20T04:12:29.751Z,80.80
2023-04-20T04:13:01.604Z,81.00
2023-04-20T04:13:34.713Z,80.70
2023-04-20T04:14:10.606Z,80.60
2023-04-20T04:14:42.822Z,81.60
2023-04-20T04:15:19.087Z,80.50
2023-04-20T04:15:57.167Z,81.40
2023-04-20T04:16:29.048Z,78.40
2023-04-20T04:17:00.973Z,80.60
2023-04-20T04:17:34.195Z,81.20
2023-04-20T04:18:08.665Z,80.50
2023-04-20T04:18:45.010Z,80.10
2023-04-20T04:19:17.644Z,80.50
2023-04-20T04:19:50.460Z,80.40
2023-04-20T04:20:22.292Z,80.80
2023-04-20T04:20:54.433Z,81.00
2023-04-20T04:21:27.649Z,80.40
2023-04-20T04:22:04.982Z,80.50
2023-04-20T04:22:43.615Z,80.40
2023-04-20T04:23:32.087Z,80.90
2023-04-20T04:24:18.299Z,80.40
2023-04-20T04:25:11.746Z,80.40
2023-04-20T04:25:43.834Z,80.60
2023-04-20T04:26:18.241Z,80.50
2023-04-20T04:26:53.532Z,80.50
2023-04-20T04:27:29.799Z,80.50
2023-04-20T04:28:01.614Z,80.20
2023-04-20T04:28:35.808Z,81.00
2023-04-20T04:29:20.872Z,80.70
2023-04-20T04:29:53.209Z,80.70
2023-04-20T04:30:27.569Z,80.90
2023-04-20T04:31:01.534Z,80.50
2023-04-20T04:31:34.278Z,80.20
2023-04-20T04:32:13.921Z,80.70
2023-04-20T04:32:46.521Z,80.80
2023-04-20T04:33:19.049Z,80.50
2023-04-20T04:33:54.520Z,80.60
2023-04-20T04:34:35.511Z,81.30
2023-04-20T04:35:08.394Z,80.40
2023-04-20T04:35:41.507Z,80.60
2023-04-20T04:36:17.623Z,80.50
2023-04-20T04:36:54.883Z,80.50
2023-04-20T04:37:34.646Z,80.40
2023-04-20T04:38:13.988Z,80.00
2023-04-20T04:38:58.744Z,80.50
2023-04-20T04:39:39.886Z,80.40
2023-04-20T04:40:24.377Z,80.40
2023-04-20T04:41:07.326Z,80.50
2023-04-20T04:41:39.212Z,80.60
2023-04-20T04:42:21.382Z,80.50
2023-04-20T04:42:57.825Z,80.40
2023-04-20T04:43:31.652Z,80.40
2023-04-20T04:44:13.146Z,80.30
2023-04-20T04:44:45.361Z,80.30
2023-04-20T04:45:29.313Z,81.40
2023-04-20T04:46:08.196Z,80.40
2023-04-20T04:46:40.469Z,80.50
2023-04-20T04:47:12.283Z,78.90
2023-04-20T04:47:44.255Z,81.10
2023-04-20T04:48:16.099Z,79.90
2023-04-20T04:48:47.890Z,80.60
2023-04-20T04:49:20.538Z,80.70
2023-04-20T04:49:52.677Z,80.60
2023-04-20T04:50:24.606Z,80.60
2023-04-20T04:50:59.830Z,80.10
2023-04-20T04:51:33.231Z,80.40
2023-04-20T04:52:05.058Z,80.40
2023-04-20T04:52:37.438Z,81.00
2023-04-20T04:53:09.256Z,80.70
2023-04-20T04:54:16.876Z,79.90
2023-04-20T04:54:49.399Z,80.50
2023-04-20T04:55:21.261Z,80.30
2023-04-20T04:55:53.071Z,80.60
2023-04-20T04:56:24.916Z,81.40
2023-04-20T04:56:58.186Z,81.20
2023-04-20T04:57:30.539Z,80.50
2023-04-20T04:58:02.655Z,80.70
2023-04-20T04:58:34.473Z,80.60
2023-04-20T04:59:06.617Z,80.50
2023-04-20T04:59:38.420Z,81.00
2023-04-20T05:00:12.403Z,80.60
2023-04-20T05:00:44.260Z,80.40
2023-04-20T05:01:16.196Z,80.00
2023-04-20T05:01:48.046Z,80.60
2023-04-20T05:02:20.277Z,81.10
2023-04-20T05:02:55.345Z,81.30
2023-04-20T05:03:27.328Z,80.20
2023-04-20T05:03:59.473Z,80.70
2023-04-20T05:04:31.663Z,81.00
2023-04-20T05:05:03.685Z,80.40
2023-04-20T05:05:35.526Z,80.40
2023-04-20T05:06:07.601Z,80.40
2023-04-20T05:06:39.384Z,80.40
2023-04-20T05:07:11.301Z,80.80
2023-04-20T05:07:43.748Z,80.50
2023-04-20T05:08:15.755Z,80.50
2023-04-20T05:08:47.879Z,81.20
2023-04-20T05:09:20.027Z,80.40
2023-04-20T05:09:52.317Z,80.60
2023-04-20T05:10:24.138Z,80.90
2023-04-20T05:10:57.539Z,80.40
2023-04-20T05:11:29.506Z,81.50
2023-04-20T05:12:03.182Z,81.30
2023-04-20T05:12:35.164Z,80.70
2023-04-20T05:13:07.046Z,80.50
2023-04-20T05:13:38.825Z,80.10
2023-04-20T05:14:10.576Z,80.70
2023-04-20T05:14:42.347Z,81.00
2023-04-20T05:15:14.218Z,79.80
2023-04-20T05:15:46.027Z,80.60
2023-04-20T05:16:18.518Z,80.40
2023-04-20T05:16:50.378Z,80.70
2023-04-20T05:17:22.126Z,80.00
2023-04-20T05:17:53.958Z,80.70
2023-04-20T05:18:25.776Z,80.80
2023-04-20T05:18:57.684Z,80.70
2023-04-20T05:19:29.552Z,80.70
2023-04-20T05:20:01.441Z,80.80
2023-04-20T05:20:33.286Z,80.80
2023-04-20T05:21:05.171Z,81.00
2023-04-20T05:21:38.164Z,80.60
2023-04-20T05:22:13.030Z,81.30
2023-04-20T05:22:45.096Z,80.40
2023-04-20T05:23:16.868Z,80.50
2023-04-20T05:23:49.280Z,80.10
2023-04-20T05:24:21.196Z,80.80
2023-04-20T05:24:53.004Z,80.80
2023-04-20T05:25:25.493Z,80.70
2023-04-20T05:25:57.314Z,80.80
2023-04-20T05:26:29.183Z,80.90
2023-04-20T05:27:01.558Z,80.90
2023-04-20T05:27:33.846Z,80.70
2023-04-20T05:28:05.799Z,80.60
2023-04-20T05:28:37.708Z,80.10
2023-04-20T05:29:09.937Z,80.70
2023-04-20T05:29:41.860Z,80.70
2023-04-20T05:30:21.349Z,80.80
2023-04-20T05:30:55.253Z,80.70
2023-04-20T05:31:27.225Z,80.70
2023-04-20T05:31:59.075Z,80.80
2023-04-20T05:32:32.784Z,80.70
2023-04-20T05:33:04.655Z,80.80
2023-04-20T05:33:36.430Z,80.90
2023-04-20T05:34:08.683Z,80.80
2023-04-20T05:34:40.707Z,81.00
2023-04-20T05:35:12.476Z,81.20
2023-04-20T05:35:44.222Z,81.10
2023-04-20T05:36:16.182Z,81.00
2023-04-20T05:36:48.087Z,80.40
2023-04-20T05:37:19.871Z,80.90
2023-04-20T05:37:51.741Z,81.90
2023-04-20T05:38:25.127Z,81.00
2023-04-20T05:38:57.144Z,80.90
2023-04-20T05:39:28.894Z,80.90
2023-04-20T05:40:00.790Z,81.40
2023-04-20T05:40:35.026Z,83.30
2023-04-20T05:41:06.881Z,81.70
2023-04-20T05:41:38.861Z,81.10
2023-04-20T05:42:10.886Z,81.00
2023-04-20T05:42:42.717Z,80.50
2023-04-20T05:43:14.589Z,81.00
2023-04-20T05:43:46.350Z,81.50
2023-04-20T05:44:18.144Z,81.80
2023-04-20T05:44:49.954Z,81.80
2023-04-20T05:45:21.701Z,81.10
2023-04-20T05:45:55.175Z,81.20
2023-04-20T05:46:27.405Z,81.10
2023-04-20T05:46:59.587Z,81.40
2023-04-20T05:47:31.538Z,81.80
2023-04-20T05:48:03.588Z,81.50
2023-04-20T05:48:35.560Z,80.80
2023-04-20T05:49:07.608Z,82.00
2023-04-20T05:49:40.548Z,82.30
2023-04-20T05:50:12.317Z,80.80
2023-04-20T05:50:44.074Z,81.30
2023-04-20T05:51:16.347Z,81.60
2023-04-20T05:51:48.144Z,81.60
2023-04-20T05:52:19.922Z,81.30
2023-04-20T05:52:52.285Z,81.40
2023-04-20T05:53:24.081Z,81.40
2023-04-20T05:53:55.901Z,81.30
2023-04-20T05:54:31.101Z,81.20
2023-04-20T05:55:03.556Z,81.30
2023-04-20T05:55:35.336Z,81.30
2023-04-20T05:56:08.100Z,81.60
2023-04-20T05:56:39.884Z,80.70
2023-04-20T05:57:11.703Z,82.80
2023-04-20T05:57:43.657Z,81.20
2023-04-20T05:58:16.315Z,83.30
2023-04-20T05:58:48.838Z,81.60
2023-04-20T05:59:22.893Z,83.20
2023-04-20T05:59:55.951Z,81.60
2023-04-20T06:00:27.823Z,81.60
2023-04-20T06:00:59.940Z,82.30
2023-04-20T06:01:32.083Z,81.30
2023-04-20T06:02:04.007Z,81.40
2023-04-20T06:02:35.928Z,81.80
2023-04-20T06:03:08.173Z,83.10
2023-04-20T06:03:40.339Z,81.30
2023-04-20T06:04:12.654Z,81.50
2023-04-20T06:04:44.869Z,83.00
2023-04-20T06:05:16.899Z,82.00
2023-04-20T06:05:48.676Z,81.50
2023-04-20T06:06:20.586Z,81.40
2023-04-20T06:06:52.662Z,81.60
2023-04-20T06:07:24.479Z,83.30
2023-04-20T06:07:56.285Z,83.10
2023-04-20T06:08:28.080Z,82.10
2023-04-20T06:08:59.953Z,83.00
2023-04-20T06:09:31.668Z,81.30
2023-04-20T06:10:04.426Z,83.40
2023-04-20T06:10:36.322Z,81.60
2023-04-20T06:11:08.063Z,82.80
2023-04-20T06:11:40.118Z,84.20
2023-04-20T06:12:11.884Z,81.80
2023-04-20T06:12:43.582Z,81.60
2023-04-20T06:13:15.471Z,83.60
2023-04-20T06:13:47.657Z,82.90
2023-04-20T06:14:19.583Z,81.70
2023-04-20T06:14:51.303Z,83.60
2023-04-20T06:15:23.123Z,81.80
2023-04-20T06:15:55.807Z,83.30
2023-04-20T06:16:27.645Z,81.80
2023-04-20T06:16:59.513Z,83.60
2023-04-20T06:17:31.330Z,83.70
2023-04-20T06:18:03.881Z,83.50
2023-04-20T06:18:36.623Z,81.90
2023-04-20T06:19:08.439Z,81.80
2023-04-20T06:19:40.689Z,83.10
2023-04-20T06:20:12.576Z,83.90
2023-04-20T06:20:44.639Z,82.00
2023-04-20T06:21:17.418Z,83.20
2023-04-20T06:21:49.560Z,83.80
2023-04-20T06:22:21.364Z,84.00
2023-04-20T06:22:53.359Z,84.10
2023-04-20T06:23:25.218Z,82.00
2023-04-20T06:23:57.056Z,83.50
2023-04-20T06:24:28.859Z,82.90
2023-04-20T06:25:01.082Z,82.10
2023-04-20T06:25:32.839Z,84.30
2023-04-20T06:26:08.421Z,82.40
2023-04-20T06:26:40.480Z,82.60
2023-04-20T06:27:12.443Z,83.00
2023-04-20T06:27:44.287Z,82.50
2023-04-20T06:28:16.052Z,82.30
2023-04-20T06:28:48.448Z,83.50
2023-04-20T06:29:20.160Z,84.30
2023-04-20T06:29:51.954Z,84.70
2023-04-20T06:30:23.962Z,84.20
2023-04-20T06:30:56.022Z,82.90
2023-04-20T06:31:27.824Z,84.50
2023-04-20T06:31:59.691Z,82.60
2023-04-20T06:32:31.592Z,83.20
2023-04-20T06:33:04.067Z,83.40
2023-04-20T06:33:36.349Z,83.90
2023-04-20T06:34:08.194Z,85.30
2023-04-20T06:34:40.019Z,84.10
2023-04-20T06:35:12.667Z,83.20
2023-04-20T06:35:44.497Z,84.80
2023-04-20T06:36:16.224Z,85.60
2023-04-20T06:36:48.013Z,84.20
2023-04-20T06:37:20.349Z,85.60
2023-04-20T06:37:52.422Z,83.90
2023-04-20T06:38:25.501Z,83.40
2023-04-20T06:38:57.288Z,85.60
2023-04-20T06:39:29.119Z,84.40
2023-04-20T06:40:00.853Z,86.10
2023-04-20T06:40:32.541Z,84.50
2023-04-20T06:41:04.541Z,85.60
2023-04-20T06:41:36.503Z,83.90
2023-04-20T06:42:10.976Z,83.70
2023-04-20T06:42:43.896Z,83.80
2023-04-20T06:43:15.681Z,83.40
2023-04-20T06:43:47.590Z,84.00
2023-04-20T06:44:19.328Z,84.20
2023-04-20T06:44:51.156Z,84.80
2023-04-20T06:45:22.959Z,84.20
2023-04-20T06:45:54.758Z,85.10
2023-04-20T06:46:26.555Z,84.80
2023-04-20T06:46:58.501Z,85.80
2023-04-20T06:47:33.840Z,84.20
2023-04-20T06:48:08.403Z,85.50
2023-04-20T06:48:46.131Z,84.40
2023-04-20T06:49:17.998Z,83.60
2023-04-20T06:49:49.998Z,84.10
2023-04-20T06:50:21.995Z,84.60
2023-04-20T06:50:53.807Z,86.60
2023-04-20T06:51:26.969Z,85.20
2023-04-20T06:51:58.723Z,87.10
2023-04-20T06:52:33.620Z,87.30
2023-04-20T06:53:05.715Z,85.60
2023-04-20T06:53:37.538Z,85.80
2023-04-20T06:54:10.237Z,85.50
2023-04-20T06:54:42.015Z,87.20
2023-04-20T06:55:13.888Z,84.40
2023-04-20T06:55:45.786Z,84.80
2023-04-20T06:56:17.608Z,86.00
2023-04-20T06:56:49.392Z,86.50
2023-04-20T06:57:21.126Z,86.40
2023-04-20T06:57:52.844Z,85.80
2023-04-20T06:58:24.576Z,86.10
2023-04-20T06:58:56.298Z,85.40
2023-04-20T06:59:28.149Z,84.90
2023-04-20T07:00:00.602Z,87.10
2023-04-20T07:00:32.665Z,87.00
2023-04-20T07:01:04.833Z,87.50
2023-04-20T07:01:36.776Z,87.40
2023-04-20T07:02:08.825Z,87.00
2023-04-20T07:02:48.024Z,88.20
2023-04-20T07:03:20.089Z,86.60
2023-04-20T07:03:52.707Z,87.20
2023-04-20T07:04:24.616Z,88.00
2023-04-20T07:05:01.908Z,87.70
2023-04-20T07:05:33.821Z,88.80
2023-04-20T07:06:07.164Z,89.00
2023-04-20T07:06:38.995Z,88.30
2023-04-20T07:07:10.768Z,90.10
2023-04-20T07:07:43.347Z,88.40
2023-04-20T07:08:17.888Z,88.10
2023-04-20T07:08:49.913Z,89.00
2023-04-20T07:09:22.944Z,88.50
2023-04-20T07:09:54.712Z,90.30
2023-04-20T07:10:26.584Z,90.00
2023-04-20T07:10:58.448Z,88.50
2023-04-20T07:11:30.193Z,89.40
2023-04-20T07:12:36.643Z,88.20
2023-04-20T07:13:08.452Z,90.40
2023-04-20T07:13:40.170Z,89.50
2023-04-20T07:14:11.901Z,90.30
2023-04-20T07:14:43.650Z,89.70
2023-04-20T07:15:15.555Z,89.10
2023-04-20T07:15:47.410Z,86.90
2023-04-20T07:16:19.222Z,90.40
2023-04-20T07:16:54.807Z,88.10
2023-04-20T07:17:29.637Z,88.10
2023-04-20T07:18:01.543Z,88.10
2023-04-20T07:18:35.235Z,88.70
2023-04-20T07:19:39.665Z,88.70
2023-04-20T07:20:12.124Z,87.80
2023-04-20T07:20:43.881Z,87.80
2023-04-20T07:21:16.109Z,88.00
2023-04-20T07:21:48.356Z,88.10
2023-04-20T07:22:20.216Z,88.40
2023-04-20T07:22:51.979Z,89.20
2023-04-20T07:23:23.829Z,88.70
2023-04-20T07:23:58.377Z,89.00
2023-04-20T07:24:30.189Z,90.40
2023-04-20T07:25:03.267Z,89.30
2023-04-20T07:25:34.990Z,89.60
2023-04-20T07:26:07.435Z,86.80
2023-04-20T07:27:43.558Z,88.30
2023-04-20T07:28:15.396Z,90.40
2023-04-20T07:28:47.174Z,90.40
2023-04-20T07:29:19.158Z,89.40
2023-04-20T07:44:30.471Z,86.10
2023-04-20T07:45:02.825Z,88.80
2023-04-20T07:45:34.627Z,87.20
2023-04-20T07:46:07.374Z,87.30
2023-04-20T07:46:39.408Z,88.40
2023-04-20T07:47:11.208Z,87.80
2023-04-20T07:47:47.043Z,88.60
2023-04-20T07:48:18.808Z,88.90
2023-04-20T07:48:51.836Z,88.00
2023-04-20T07:49:24.622Z,88.00
2023-04-20T07:49:57.531Z,88.90
2023-04-20T07:50:29.381Z,88.20
2023-04-20T07:51:01.267Z,89.10
2023-04-20T07:51:34.297Z,88.60
2023-04-20T07:52:15.842Z,88.90
2023-04-20T07:52:48.842Z,88.50
2023-04-20T07:53:20.868Z,89.30
2023-04-20T07:53:52.578Z,88.70
2023-04-20T07:54:27.449Z,88.60
2023-04-20T07:54:59.888Z,89.30
2023-04-20T07:55:31.748Z,89.40
2023-04-20T07:56:03.540Z,88.70
2023-04-20T07:56:35.349Z,89.10
2023-04-20T07:57:09.375Z,88.80